sensor_id;sensor_type;location;lat;lon;timestamp;pressure;altitude;pressure_sealevel;temperature
71640;BMP280;60912;48.968;10.124;2023-04-01T00:00:11;95231.31;;;9.65
71640;BMP280;60912;48.968;10.124;2023-04-01T00:02:37;95233.09;;;9.70
71640;BMP280;60912;48.968;10.124;2023-04-01T00:05:03;95228.97;;;9.79
71640;BMP280;60912;48.968;10.124;2023-04-01T00:07:28;95223.75;;;9.83
71640;BMP280;60912;48.968;10.124;2023-04-01T00:09:54;95228.97;;;9.79
71640;BMP280;60912;48.968;10.124;2023-04-01T00:12:19;95228.63;;;9.75
71640;BMP280;60912;48.968;10.124;2023-04-01T00:14:45;95225.22;;;9.84
71640;BMP280;60912;48.968;10.124;2023-04-01T00:17:10;95225.53;;;9.88
71640;BMP280;60912;48.968;10.124;2023-04-01T00:19:36;95221.78;;;9.93
71640;BMP280;60912;48.968;10.124;2023-04-01T00:22:02;95226.03;;;9.77
71640;BMP280;60912;48.968;10.124;2023-04-01T00:24:28;95219.13;;;9.59
71640;BMP280;60912;48.968;10.124;2023-04-01T00:26:54;95217.50;;;9.56
71640;BMP280;60912;48.968;10.124;2023-04-01T00:29:20;95223.84;;;9.49
71640;BMP280;60912;48.968;10.124;2023-04-01T00:31:45;95217.34;;;9.36
71640;BMP280;60912;48.968;10.124;2023-04-01T00:34:11;95223.00;;;9.38
71640;BMP280;60912;48.968;10.124;2023-04-01T00:36:37;95226.41;;;9.47
71640;BMP280;60912;48.968;10.124;2023-04-01T00:39:03;95218.50;;;9.33
71640;BMP280;60912;48.968;10.124;2023-04-01T00:41:28;95231.09;;;9.54
71640;BMP280;60912;48.968;10.124;2023-04-01T00:44:15;95227.06;;;9.55
71640;BMP280;60912;48.968;10.124;2023-04-01T00:46:41;95225.19;;;9.57
71640;BMP280;60912;48.968;10.124;2023-04-01T00:49:06;95219.28;;;9.61
71640;BMP280;60912;48.968;10.124;2023-04-01T00:51:32;95220.91;;;9.47
71640;BMP280;60912;48.968;10.124;2023-04-01T00:54:00;95228.34;;;9.54
71640;BMP280;60912;48.968;10.124;2023-04-01T00:56:42;95234.00;;;9.56
71640;BMP280;60912;48.968;10.124;2023-04-01T00:59:13;95223.00;;;9.56
71640;BMP280;60912;48.968;10.124;2023-04-01T01:01:38;95230.56;;;9.65
71640;BMP280;60912;48.968;10.124;2023-04-01T01:04:04;95224.53;;;9.66
71640;BMP280;60912;48.968;10.124;2023-04-01T01:12:20;95217.56;;;9.65
71640;BMP280;60912;48.968;10.124;2023-04-01T01:18:05;95212.00;;;9.56
71640;BMP280;60912;48.968;10.124;2023-04-01T01:24:04;95211.84;;;9.71
71640;BMP280;60912;48.968;10.124;2023-04-01T01:37:37;95204.72;;;9.51
71640;BMP280;60912;48.968;10.124;2023-04-01T01:40:07;95205.06;;;9.55
71640;BMP280;60912;48.968;10.124;2023-04-01T01:42:36;95197.69;;;9.57
71640;BMP280;60912;48.968;10.124;2023-04-01T01:45:04;95193.91;;;9.53
71640;BMP280;60912;48.968;10.124;2023-04-01T01:47:31;95194.50;;;9.34
71640;BMP280;60912;48.968;10.124;2023-04-01T01:49:57;95196.16;;;9.47
71640;BMP280;60912;48.968;10.124;2023-04-01T01:52:27;95202.47;;;9.57
71640;BMP280;60912;48.968;10.124;2023-04-01T01:54:55;95190.91;;;9.41
71640;BMP280;60912;48.968;10.124;2023-04-01T01:57:47;95203.53;;;9.27
71640;BMP280;60912;48.968;10.124;2023-04-01T02:00:13;95201.28;;;9.33
71640;BMP280;60912;48.968;10.124;2023-04-01T02:02:40;95202.47;;;9.40
71640;BMP280;60912;48.968;10.124;2023-04-01T02:05:09;95205.78;;;9.55
71640;BMP280;60912;48.968;10.124;2023-04-01T02:07:37;95201.00;;;9.56
71640;BMP280;60912;48.968;10.124;2023-04-01T02:10:04;95205.69;;;9.63
71640;BMP280;60912;48.968;10.124;2023-04-01T02:12:29;95202.13;;;9.70
71640;BMP280;60912;48.968;10.124;2023-04-01T02:15:06;95212.25;;;9.50
71640;BMP280;60912;48.968;10.124;2023-04-01T02:17:34;95201.19;;;9.41
71640;BMP280;60912;48.968;10.124;2023-04-01T02:20:07;95208.31;;;9.44
71640;BMP280;60912;48.968;10.124;2023-04-01T02:22:37;95212.34;;;9.43
71640;BMP280;60912;48.968;10.124;2023-04-01T02:25:11;95207.47;;;9.51
71640;BMP280;60912;48.968;10.124;2023-04-01T02:27:39;95215.41;;;9.47
71640;BMP280;60912;48.968;10.124;2023-04-01T02:30:06;95211.84;;;9.36
71640;BMP280;60912;48.968;10.124;2023-04-01T02:32:33;95205.66;;;9.36
71640;BMP280;60912;48.968;10.124;2023-04-01T02:35:00;95215.59;;;9.31
71640;BMP280;60912;48.968;10.124;2023-04-01T02:37:30;95209.34;;;9.31
71640;BMP280;60912;48.968;10.124;2023-04-01T02:40:00;95213.28;;;9.37
71640;BMP280;60912;48.968;10.124;2023-04-01T02:42:25;95219.47;;;9.46
71640;BMP280;60912;48.968;10.124;2023-04-01T02:44:51;95215.81;;;9.43
71640;BMP280;60912;48.968;10.124;2023-04-01T02:47:16;95213.97;;;9.46
71640;BMP280;60912;48.968;10.124;2023-04-01T02:49:41;95220.41;;;9.58
71640;BMP280;60912;48.968;10.124;2023-04-01T02:52:07;95212.97;;;9.68
71640;BMP280;60912;48.968;10.124;2023-04-01T02:54:32;95214.97;;;9.67
71640;BMP280;60912;48.968;10.124;2023-04-01T02:56:57;95225.59;;;9.71
71640;BMP280;60912;48.968;10.124;2023-04-01T02:59:23;95228.41;;;9.63
71640;BMP280;60912;48.968;10.124;2023-04-01T03:01:48;95222.38;;;9.48
71640;BMP280;60912;48.968;10.124;2023-04-01T03:04:14;95228.34;;;9.36
71640;BMP280;60912;48.968;10.124;2023-04-01T03:06:39;95225.75;;;9.38
71640;BMP280;60912;48.968;10.124;2023-04-01T03:09:05;95223.66;;;9.29
71640;BMP280;60912;48.968;10.124;2023-04-01T03:11:30;95217.84;;;9.25
71640;BMP280;60912;48.968;10.124;2023-04-01T03:13:56;95227.00;;;9.28
71640;BMP280;60912;48.968;10.124;2023-04-01T03:16:21;95219.97;;;9.17
71640;BMP280;60912;48.968;10.124;2023-04-01T03:18:46;95224.00;;;9.16
71640;BMP280;60912;48.968;10.124;2023-04-01T03:21:22;95221.53;;;9.03
71640;BMP280;60912;48.968;10.124;2023-04-01T03:23:47;95213.72;;;9.00
71640;BMP280;60912;48.968;10.124;2023-04-01T03:26:13;95217.19;;;9.00
71640;BMP280;60912;48.968;10.124;2023-04-01T03:28:39;95214.72;;;8.87
71640;BMP280;60912;48.968;10.124;2023-04-01T03:31:04;95228.56;;;8.79
71640;BMP280;60912;48.968;10.124;2023-04-01T03:33:30;95228.94;;;8.76
71640;BMP280;60912;48.968;10.124;2023-04-01T03:35:56;95220.13;;;8.77
71640;BMP280;60912;48.968;10.124;2023-04-01T03:38:21;95217.94;;;8.76
71640;BMP280;60912;48.968;10.124;2023-04-01T03:40:46;95218.13;;;8.78
71640;BMP280;60912;48.968;10.124;2023-04-01T03:43:12;95224.53;;;8.80
71640;BMP280;60912;48.968;10.124;2023-04-01T03:45:47;95221.88;;;8.90
71640;BMP280;60912;48.968;10.124;2023-04-01T03:48:14;95223.56;;;8.85
71640;BMP280;60912;48.968;10.124;2023-04-01T03:50:39;95234.38;;;8.83
71640;BMP280;60912;48.968;10.124;2023-04-01T03:53:05;95222.25;;;8.86
71640;BMP280;60912;48.968;10.124;2023-04-01T03:55:30;95224.44;;;8.88
71640;BMP280;60912;48.968;10.124;2023-04-01T03:57:56;95220.09;;;8.85
71640;BMP280;60912;48.968;10.124;2023-04-01T04:00:21;95226.38;;;8.78
71640;BMP280;60912;48.968;10.124;2023-04-01T04:02:47;95224.91;;;8.77
71640;BMP280;60912;48.968;10.124;2023-04-01T04:05:13;95233.63;;;8.83
71640;BMP280;60912;48.968;10.124;2023-04-01T04:07:39;95223.72;;;8.87
71640;BMP280;60912;48.968;10.124;2023-04-01T04:10:05;95226.69;;;8.82
71640;BMP280;60912;48.968;10.124;2023-04-01T04:12:30;95217.88;;;8.83
71640;BMP280;60912;48.968;10.124;2023-04-01T04:14:56;95224.06;;;8.67
71640;BMP280;60912;48.968;10.124;2023-04-01T04:17:21;95228.28;;;8.68
71640;BMP280;60912;48.968;10.124;2023-04-01T04:19:47;95231.03;;;8.68
71640;BMP280;60912;48.968;10.124;2023-04-01T04:22:12;95234.31;;;8.66
71640;BMP280;60912;48.968;10.124;2023-04-01T04:24:37;95228.56;;;8.79
71640;BMP280;60912;48.968;10.124;2023-04-01T04:27:03;95226.69;;;8.82
71640;BMP280;60912;48.968;10.124;2023-04-01T04:29:29;95229.59;;;8.84
71640;BMP280;60912;48.968;10.124;2023-04-01T04:31:55;95228.16;;;8.83
71640;BMP280;60912;48.968;10.124;2023-04-01T04:34:20;95230.06;;;8.73
71640;BMP280;60912;48.968;10.124;2023-04-01T04:36:47;95219.88;;;8.66
71640;BMP280;60912;48.968;10.124;2023-04-01T04:39:13;95227.94;;;8.64
71640;BMP280;60912;48.968;10.124;2023-04-01T04:41:39;95211.91;;;8.52
71640;BMP280;60912;48.968;10.124;2023-04-01T04:44:05;95218.03;;;8.43
71640;BMP280;60912;48.968;10.124;2023-04-01T04:46:30;95220.75;;;8.43
71640;BMP280;60912;48.968;10.124;2023-04-01T04:48:56;95227.19;;;8.63
71640;BMP280;60912;48.968;10.124;2023-04-01T04:51:21;95226.09;;;8.66
71640;BMP280;60912;48.968;10.124;2023-04-01T04:53:48;95222.63;;;8.66
71640;BMP280;60912;48.968;10.124;2023-04-01T04:56:18;95225.84;;;8.72
71640;BMP280;60912;48.968;10.124;2023-04-01T04:58:44;95233.13;;;8.77
71640;BMP280;60912;48.968;10.124;2023-04-01T05:01:12;95230.72;;;8.81
71640;BMP280;60912;48.968;10.124;2023-04-01T05:03:38;95228.94;;;8.76
71640;BMP280;60912;48.968;10.124;2023-04-01T05:06:05;95232.47;;;8.69
71640;BMP280;60912;48.968;10.124;2023-04-01T05:08:30;95237.44;;;8.63
71640;BMP280;60912;48.968;10.124;2023-04-01T05:10:56;95235.69;;;8.58
71640;BMP280;60912;48.968;10.124;2023-04-01T05:13:21;95232.31;;;8.67
71640;BMP280;60912;48.968;10.124;2023-04-01T05:15:47;95237.44;;;8.70
71640;BMP280;60912;48.968;10.124;2023-04-01T05:18:12;95227.97;;;8.81
71640;BMP280;60912;48.968;10.124;2023-04-01T05:20:37;95229.06;;;8.61
71640;BMP280;60912;48.968;10.124;2023-04-01T05:23:03;95223.91;;;8.65
71640;BMP280;60912;48.968;10.124;2023-04-01T05:25:28;95223.84;;;8.72
71640;BMP280;60912;48.968;10.124;2023-04-01T05:27:54;95224.13;;;8.84
71640;BMP280;60912;48.968;10.124;2023-04-01T05:30:20;95214.44;;;9.00
71640;BMP280;60912;48.968;10.124;2023-04-01T05:32:46;95219.44;;;8.94
71640;BMP280;60912;48.968;10.124;2023-04-01T05:35:11;95224.91;;;8.77
71640;BMP280;60912;48.968;10.124;2023-04-01T05:37:37;95214.97;;;8.81
71640;BMP280;60912;48.968;10.124;2023-04-01T05:40:03;95221.38;;;9.01
71640;BMP280;60912;48.968;10.124;2023-04-01T05:42:29;95216.56;;;9.09
71640;BMP280;60912;48.968;10.124;2023-04-01T05:44:54;95218.88;;;8.96
71640;BMP280;60912;48.968;10.124;2023-04-01T05:47:21;95218.53;;;8.91
71640;BMP280;60912;48.968;10.124;2023-04-01T05:49:47;95220.63;;;9.01
71640;BMP280;60912;48.968;10.124;2023-04-01T05:52:12;95230.88;;;9.08
71640;BMP280;60912;48.968;10.124;2023-04-01T05:54:38;95220.75;;;9.10
71640;BMP280;60912;48.968;10.124;2023-04-01T05:57:03;95219.38;;;9.19
71640;BMP280;60912;48.968;10.124;2023-04-01T05:59:29;95233.69;;;9.17
71640;BMP280;60912;48.968;10.124;2023-04-01T06:01:56;95223.34;;;9.25
71640;BMP280;60912;48.968;10.124;2023-04-01T06:04:22;95232.41;;;9.35
71640;BMP280;60912;48.968;10.124;2023-04-01T06:06:47;95227.22;;;9.40
71640;BMP280;60912;48.968;10.124;2023-04-01T06:09:18;95225.59;;;9.54
71640;BMP280;60912;48.968;10.124;2023-04-01T06:36:55;95230.47;;;9.46
71640;BMP280;60912;48.968;10.124;2023-04-01T06:49:41;95218.25;;;9.83
71640;BMP280;60912;48.968;10.124;2023-04-01T06:54:50;95211.97;;;10.27
71640;BMP280;60912;48.968;10.124;2023-04-01T06:57:20;95205.50;;;10.32
71640;BMP280;60912;48.968;10.124;2023-04-01T06:59:47;95207.75;;;10.26
71640;BMP280;60912;48.968;10.124;2023-04-01T07:02:37;95202.78;;;10.41
71640;BMP280;60912;48.968;10.124;2023-04-01T07:05:05;95204.06;;;10.50
71640;BMP280;60912;48.968;10.124;2023-04-01T07:07:41;95208.00;;;10.47
71640;BMP280;60912;48.968;10.124;2023-04-01T07:10:19;95213.88;;;10.34
71640;BMP280;60912;48.968;10.124;2023-04-01T07:13:18;95202.88;;;10.34
71640;BMP280;60912;48.968;10.124;2023-04-01T07:15:56;95210.31;;;10.41
71640;BMP280;60912;48.968;10.124;2023-04-01T07:18:32;95210.44;;;10.43
71640;BMP280;60912;48.968;10.124;2023-04-01T07:21:00;95217.41;;;10.44
71640;BMP280;60912;48.968;10.124;2023-04-01T07:23:32;95214.13;;;10.64
71640;BMP280;60912;48.968;10.124;2023-04-01T07:26:20;95205.34;;;10.39
71640;BMP280;60912;48.968;10.124;2023-04-01T07:28:46;95204.19;;;10.42
71640;BMP280;60912;48.968;10.124;2023-04-01T07:31:33;95207.59;;;10.60
71640;BMP280;60912;48.968;10.124;2023-04-01T07:36:54;95205.06;;;10.81
71640;BMP280;60912;48.968;10.124;2023-04-01T07:54:59;95219.06;;;10.76
71640;BMP280;60912;48.968;10.124;2023-04-01T08:00:54;95229.13;;;10.90
71640;BMP280;60912;48.968;10.124;2023-04-01T08:06:18;95218.16;;;11.48
71640;BMP280;60912;48.968;10.124;2023-04-01T08:12:20;95234.13;;;11.21
71640;BMP280;60912;48.968;10.124;2023-04-01T08:22:51;95226.56;;;11.50
71640;BMP280;60912;48.968;10.124;2023-04-01T08:25:24;95229.59;;;11.64
71640;BMP280;60912;48.968;10.124;2023-04-01T08:27:58;95229.59;;;11.54
71640;BMP280;60912;48.968;10.124;2023-04-01T08:30:33;95231.19;;;11.57
71640;BMP280;60912;48.968;10.124;2023-04-01T08:33:22;95235.81;;;11.74
71640;BMP280;60912;48.968;10.124;2023-04-01T08:38:34;95234.25;;;11.61
71640;BMP280;60912;48.968;10.124;2023-04-01T08:58:21;95225.69;;;11.57
71640;BMP280;60912;48.968;10.124;2023-04-01T09:12:06;95233.78;;;11.07
71640;BMP280;60912;48.968;10.124;2023-04-01T09:21:36;95236.88;;;11.11
71640;BMP280;60912;48.968;10.124;2023-04-01T09:24:23;95246.38;;;10.91
71640;BMP280;60912;48.968;10.124;2023-04-01T09:27:03;95243.91;;;10.85
71640;BMP280;60912;48.968;10.124;2023-04-01T09:38:28;95240.47;;;11.52
71640;BMP280;60912;48.968;10.124;2023-04-01T09:46:09;95258.03;;;11.85
71640;BMP280;60912;48.968;10.124;2023-04-01T09:55:36;95263.72;;;11.11
71640;BMP280;60912;48.968;10.124;2023-04-01T10:26:38;95250.03;;;11.03
71640;BMP280;60912;48.968;10.124;2023-04-01T10:54:25;95248.94;;;11.35
71640;BMP280;60912;48.968;10.124;2023-04-01T10:56:59;95258.66;;;11.36
71640;BMP280;60912;48.968;10.124;2023-04-01T11:11:28;95252.66;;;11.68
71640;BMP280;60912;48.968;10.124;2023-04-01T11:26:02;95260.81;;;11.76
71640;BMP280;60912;48.968;10.124;2023-04-01T11:31:40;95255.53;;;11.89
71640;BMP280;60912;48.968;10.124;2023-04-01T11:34:35;95259.63;;;11.88
71640;BMP280;60912;48.968;10.124;2023-04-01T11:37:25;95256.16;;;11.69
71640;BMP280;60912;48.968;10.124;2023-04-01T11:40:14;95265.59;;;11.75
71640;BMP280;60912;48.968;10.124;2023-04-01T11:45:55;95277.50;;;11.59
71640;BMP280;60912;48.968;10.124;2023-04-01T11:57:10;95286.09;;;11.34
71640;BMP280;60912;48.968;10.124;2023-04-01T12:04:55;95295.09;;;11.44
71640;BMP280;60912;48.968;10.124;2023-04-01T12:15:36;95301.19;;;
71640;BMP280;60912;48.968;10.124;2023-04-01T12:29:11;95292.00;;;12.07
71640;BMP280;60912;48.968;10.124;2023-04-01T12:34:53;95284.28;;;12.06
71640;BMP280;60912;48.968;10.124;2023-04-01T12:38:17;95291.88;;;11.86
71640;BMP280;60912;48.968;10.124;2023-04-01T12:41:24;95291.25;;;12.16
71640;BMP280;60912;48.968;10.124;2023-04-01T12:59:54;95313.03;;;12.03
71640;BMP280;60912;48.968;10.124;2023-04-01T13:14:44;95307.38;;;12.10
71640;BMP280;60912;48.968;10.124;2023-04-01T13:17:32;95311.03;;;11.93
71640;BMP280;60912;48.968;10.124;2023-04-01T13:25:14;95319.00;;;12.59
71640;BMP280;60912;48.968;10.124;2023-04-01T13:27:44;95316.47;;;12.51
71640;BMP280;60912;48.968;10.124;2023-04-01T13:30:34;95318.00;;;12.14
71640;BMP280;60912;48.968;10.124;2023-04-01T13:33:24;95323.19;;;12.19
71640;BMP280;60912;48.968;10.124;2023-04-01T13:44:46;95317.94;;;12.33
71640;BMP280;60912;48.968;10.124;2023-04-01T13:50:37;95312.97;;;12.41
71640;BMP280;60912;48.968;10.124;2023-04-01T14:01:35;95325.28;;;12.09
71640;BMP280;60912;48.968;10.124;2023-04-01T14:04:16;95326.69;;;12.20
71640;BMP280;60912;48.968;10.124;2023-04-01T14:09:50;95341.13;;;11.99
71640;BMP280;60912;48.968;10.124;2023-04-01T14:35:19;95347.25;;;12.57
71640;BMP280;60912;48.968;10.124;2023-04-01T14:38:12;95351.91;;;12.64
71640;BMP280;60912;48.968;10.124;2023-04-01T14:43:47;95358.38;;;12.78
71640;BMP280;60912;48.968;10.124;2023-04-01T14:51:48;95368.53;;;12.35
71640;BMP280;60912;48.968;10.124;2023-04-01T14:54:18;95369.56;;;12.21
71640;BMP280;60912;48.968;10.124;2023-04-01T14:56:50;95367.09;;;12.25
71640;BMP280;60912;48.968;10.124;2023-04-01T15:01:57;95367.97;;;12.18
71640;BMP280;60912;48.968;10.124;2023-04-01T15:10:01;95383.94;;;12.48
71640;BMP280;60912;48.968;10.124;2023-04-01T15:15:00;95382.03;;;12.31
71640;BMP280;60912;48.968;10.124;2023-04-01T15:17:40;95381.03;;;12.27
71640;BMP280;60912;48.968;10.124;2023-04-01T15:31:42;95393.41;;;12.16
71640;BMP280;60912;48.968;10.124;2023-04-01T16:08:17;95405.19;;;11.23
71640;BMP280;60912;48.968;10.124;2023-04-01T16:19:19;95416.50;;;11.17
71640;BMP280;60912;48.968;10.124;2023-04-01T16:24:30;95416.00;;;11.01
71640;BMP280;60912;48.968;10.124;2023-04-01T16:29:48;95422.56;;;11.16
71640;BMP280;60912;48.968;10.124;2023-04-01T16:43:16;95422.03;;;10.90
71640;BMP280;60912;48.968;10.124;2023-04-01T16:48:28;95420.91;;;10.93
71640;BMP280;60912;48.968;10.124;2023-04-01T16:51:11;95421.75;;;10.86
71640;BMP280;60912;48.968;10.124;2023-04-01T16:59:58;95432.25;;;10.97
71640;BMP280;60912;48.968;10.124;2023-04-01T17:02:52;95438.38;;;11.05
71640;BMP280;60912;48.968;10.124;2023-04-01T17:05:41;95435.34;;;10.84
71640;BMP280;60912;48.968;10.124;2023-04-01T17:14:16;95443.09;;;10.51
71640;BMP280;60912;48.968;10.124;2023-04-01T17:16:48;95446.75;;;10.54
71640;BMP280;60912;48.968;10.124;2023-04-01T17:27:51;95461.97;;;10.72
71640;BMP280;60912;48.968;10.124;2023-04-01T17:38:32;95463.06;;;10.42
71640;BMP280;60912;48.968;10.124;2023-04-01T17:41:19;95472.56;;;10.49
71640;BMP280;60912;48.968;10.124;2023-04-01T17:44:55;95478.34;;;10.53
71640;BMP280;60912;48.968;10.124;2023-04-01T17:54:45;95483.72;;;10.34
71640;BMP280;60912;48.968;10.124;2023-04-01T18:03:06;95487.09;;;10.59
71640;BMP280;60912;48.968;10.124;2023-04-01T18:11:28;95497.16;;;10.47
71640;BMP280;60912;48.968;10.124;2023-04-01T18:16:43;95497.81;;;10.20
71640;BMP280;60912;48.968;10.124;2023-04-01T18:19:31;95499.34;;;10.14
71640;BMP280;60912;48.968;10.124;2023-04-01T18:22:19;95506.25;;;10.23
71640;BMP280;60912;48.968;10.124;2023-04-01T18:27:53;95520.00;;;10.40
71640;BMP280;60912;48.968;10.124;2023-04-01T18:30:34;95515.22;;;10.40
71640;BMP280;60912;48.968;10.124;2023-04-01T18:39:57;95535.72;;;10.64
71640;BMP280;60912;48.968;10.124;2023-04-01T18:54:32;95547.38;;;10.38
71640;BMP280;60912;48.968;10.124;2023-04-01T18:57:07;95541.63;;;10.43
71640;BMP280;60912;48.968;10.124;2023-04-01T19:00:27;95556.94;;;10.37
71640;BMP280;60912;48.968;10.124;2023-04-01T19:05:48;95552.88;;;10.20
71640;BMP280;60912;48.968;10.124;2023-04-01T19:08:44;95567.41;;;10.13
71640;BMP280;60912;48.968;10.124;2023-04-01T19:14:18;95572.44;;;10.07
71640;BMP280;60912;48.968;10.124;2023-04-01T19:20:21;95565.66;;;10.26
71640;BMP280;60912;48.968;10.124;2023-04-01T19:26:05;95565.13;;;10.02
71640;BMP280;60912;48.968;10.124;2023-04-01T19:41:43;95565.69;;;9.76
71640;BMP280;60912;48.968;10.124;2023-04-01T19:57:38;95586.72;;;9.89
71640;BMP280;60912;48.968;10.124;2023-04-01T20:08:44;95592.75;;;9.87
71640;BMP280;60912;48.968;10.124;2023-04-01T20:11:28;95595.69;;;9.89
71640;BMP280;60912;48.968;10.124;2023-04-01T20:16:49;95615.16;;;9.84
71640;BMP280;60912;48.968;10.124;2023-04-01T20:19:26;95614.53;;;9.68
71640;BMP280;60912;48.968;10.124;2023-04-01T20:21:57;95614.47;;;9.75
71640;BMP280;60912;48.968;10.124;2023-04-01T20:24:51;95613.91;;;9.77
71640;BMP280;60912;48.968;10.124;2023-04-01T20:27:25;95628.41;;;9.77
71640;BMP280;60912;48.968;10.124;2023-04-01T20:30:29;95632.13;;;9.72
71640;BMP280;60912;48.968;10.124;2023-04-01T20:42:11;95629.47;;;9.50
71640;BMP280;60912;48.968;10.124;2023-04-01T20:44:52;95631.91;;;9.46
71640;BMP280;60912;48.968;10.124;2023-04-01T20:53:11;95638.50;;;9.43
71640;BMP280;60912;48.968;10.124;2023-04-01T20:56:02;95643.75;;;9.56
71640;BMP280;60912;48.968;10.124;2023-04-01T21:01:55;95651.66;;;9.52
71640;BMP280;60912;48.968;10.124;2023-04-01T21:10:00;95656.66;;;9.78
71640;BMP280;60912;48.968;10.124;2023-04-01T21:18:10;95663.13;;;9.73
71640;BMP280;60912;48.968;10.124;2023-04-01T21:37:18;95668.97;;;10.02
71640;BMP280;60912;48.968;10.124;2023-04-01T21:45:25;95684.59;;;9.67
71640;BMP280;60912;48.968;10.124;2023-04-01T21:49:06;95679.50;;;9.56
71640;BMP280;60912;48.968;10.124;2023-04-01T21:54:26;95683.25;;;9.43
71640;BMP280;60912;48.968;10.124;2023-04-01T22:05:30;95689.81;;;9.48
71640;BMP280;60912;48.968;10.124;2023-04-01T22:11:03;95689.06;;;9.47
71640;BMP280;60912;48.968;10.124;2023-04-01T22:13:46;95694.91;;;9.59
71640;BMP280;60912;48.968;10.124;2023-04-01T22:18:49;95686.41;;;9.64
71640;BMP280;60912;48.968;10.124;2023-04-01T22:21:31;95686.25;;;9.70
71640;BMP280;60912;48.968;10.124;2023-04-01T22:24:26;95692.44;;;9.78
71640;BMP280;60912;48.968;10.124;2023-04-01T22:27:01;95688.19;;;9.85
71640;BMP280;60912;48.968;10.124;2023-04-01T22:29:37;95693.88;;;9.79
71640;BMP280;60912;48.968;10.124;2023-04-01T22:40:27;95693.88;;;9.87
71640;BMP280;60912;48.968;10.124;2023-04-01T22:48:13;95701.81;;;9.67
71640;BMP280;60912;48.968;10.124;2023-04-01T22:51:01;95702.19;;;9.71
71640;BMP280;60912;48.968;10.124;2023-04-01T22:56:07;95712.16;;;9.52
71640;BMP280;60912;48.968;10.124;2023-04-01T22:58:41;95709.81;;;9.41
71640;BMP280;60912;48.968;10.124;2023-04-01T23:01:14;95715.47;;;9.50
71640;BMP280;60912;48.968;10.124;2023-04-01T23:03:44;95718.75;;;9.56
71640;BMP280;60912;48.968;10.124;2023-04-01T23:06:20;95712.47;;;9.63
71640;BMP280;60912;48.968;10.124;2023-04-01T23:11:59;95718.00;;;9.56
71640;BMP280;60912;48.968;10.124;2023-04-01T23:14:38;95727.88;;;9.66
71640;BMP280;60912;48.968;10.124;2023-04-01T23:20:05;95731.63;;;9.46
71640;BMP280;60912;48.968;10.124;2023-04-01T23:25:18;95737.88;;;9.31
71640;BMP280;60912;48.968;10.124;2023-04-01T23:28:17;95741.56;;;9.26
71640;BMP280;60912;48.968;10.124;2023-04-01T23:36:13;95752.47;;;9.57
71640;BMP280;60912;48.968;10.124;2023-04-01T23:38:41;95753.59;;;9.54
71640;BMP280;60912;48.968;10.124;2023-04-01T23:41:09;95757.38;;;9.66
71640;BMP280;60912;48.968;10.124;2023-04-01T23:43:43;95759.78;;;9.69
71640;BMP280;60912;48.968;10.124;2023-04-01T23:46:12;95763.13;;;9.53
71640;BMP280;60912;48.968;10.124;2023-04-01T23:48:43;95764.06;;;9.55
71640;BMP280;60912;48.968;10.124;2023-04-01T23:51:18;95770.25;;;9.63
71640;BMP280;60912;48.968;10.124;2023-04-01T23:53:45;95759.41;;;9.65
71640;BMP280;60912;48.968;10.124;2023-04-01T23:56:15;95774.97;;;9.78
71640;BMP280;60912;48.968;10.124;2023-04-01T23:58:48;95765.25;;;9.77
